sensor_id;sensor_type;location;lat;lon;timestamp;P1;durP1;ratioP1;P2;durP2;ratioP2
30519;SDS011;17300;50.374;8.006;2023-01-05T00:00:51;0.80;;;0.40;;
30519;SDS011;17300;50.374;8.006;2023-01-05T00:03:18;0.30;;;0.30;;
30519;SDS011;17300;50.374;8.006;2023-01-05T00:05:45;0.20;;;0.20;;
30519;SDS011;17300;50.374;8.006;2023-01-05T00:08:11;0.37;;;0.20;;
30519;SDS011;17300;50.374;8.006;2023-01-05T00:10:39;0.23;;;0.20;;
30519;SDS011;17300;50.374;8.006;2023-01-05T00:13:24;0.40;;;0.40;;
30519;SDS011;17300;50.374;8.006;2023-01-05T00:16:09;0.60;;;0.37;;
30519;SDS011;17300;50.374;8.006;2023-01-05T00:18:55;0.40;;;0.20;;
30519;SDS011;17300;50.374;8.006;2023-01-05T00:21:39;1.03;;;0.40;;
30519;SDS011;17300;50.374;8.006;2023-01-05T00:24:24;1.17;;;0.43;;
30519;SDS011;17300;50.374;8.006;2023-01-05T00:26:51;0.40;;;0.40;;
30519;SDS011;17300;50.374;8.006;2023-01-05T00:29:18;0.30;;;0.30;;
30519;SDS011;17300;50.374;8.006;2023-01-05T00:31:45;0.33;;;0.30;;
30519;SDS011;17300;50.374;8.006;2023-01-05T00:34:11;0.30;;;0.30;;
30519;SDS011;17300;50.374;8.006;2023-01-05T00:36:38;0.47;;;0.30;;
30519;SDS011;17300;50.374;8.006;2023-01-05T00:39:05;0.70;;;0.33;;
30519;SDS011;17300;50.374;8.006;2023-01-05T00:41:32;0.50;;;0.37;;
30519;SDS011;17300;50.374;8.006;2023-01-05T00:44:00;1.53;;;0.50;;
30519;SDS011;17300;50.374;8.006;2023-01-05T00:46:26;0.70;;;0.30;;
30519;SDS011;17300;50.374;8.006;2023-01-05T00:48:53;1.20;;;0.57;;
30519;SDS011;17300;50.374;8.006;2023-01-05T00:51:20;1.93;;;0.67;;
30519;SDS011;17300;50.374;8.006;2023-01-05T00:53:46;1.13;;;0.50;;
30519;SDS011;17300;50.374;8.006;2023-01-05T00:56:13;1.20;;;0.50;;
30519;SDS011;17300;50.374;8.006;2023-01-05T00:58:40;1.03;;;0.40;;
30519;SDS011;17300;50.374;8.006;2023-01-05T01:01:09;1.00;;;0.50;;
30519;SDS011;17300;50.374;8.006;2023-01-05T01:03:36;1.13;;;0.70;;
30519;SDS011;17300;50.374;8.006;2023-01-05T01:06:03;1.93;;;0.70;;
30519;SDS011;17300;50.374;8.006;2023-01-05T01:08:29;1.10;;;0.43;;
30519;SDS011;17300;50.374;8.006;2023-01-05T01:10:56;1.70;;;0.90;;
30519;SDS011;17300;50.374;8.006;2023-01-05T01:13:27;2.53;;;0.93;;
30519;SDS011;17300;50.374;8.006;2023-01-05T01:15:54;2.10;;;0.87;;
30519;SDS011;17300;50.374;8.006;2023-01-05T01:18:23;1.47;;;0.60;;
30519;SDS011;17300;50.374;8.006;2023-01-05T01:20:49;2.13;;;0.80;;
30519;SDS011;17300;50.374;8.006;2023-01-05T01:23:16;1.20;;;0.70;;
30519;SDS011;17300;50.374;8.006;2023-01-05T01:25:43;2.40;;;0.80;;
30519;SDS011;17300;50.374;8.006;2023-01-05T01:28:09;2.40;;;1.10;;
30519;SDS011;17300;50.374;8.006;2023-01-05T01:30:36;2.60;;;0.67;;
30519;SDS011;17300;50.374;8.006;2023-01-05T01:33:03;2.03;;;0.83;;
30519;SDS011;17300;50.374;8.006;2023-01-05T01:35:31;2.30;;;0.87;;
30519;SDS011;17300;50.374;8.006;2023-01-05T01:37:58;2.80;;;1.00;;
30519;SDS011;17300;50.374;8.006;2023-01-05T01:40:25;1.90;;;1.10;;
30519;SDS011;17300;50.374;8.006;2023-01-05T01:42:51;2.83;;;1.17;;
30519;SDS011;17300;50.374;8.006;2023-01-05T01:45:19;2.07;;;0.83;;
30519;SDS011;17300;50.374;8.006;2023-01-05T01:47:48;1.97;;;1.00;;
30519;SDS011;17300;50.374;8.006;2023-01-05T01:50:19;3.40;;;1.20;;
30519;SDS011;17300;50.374;8.006;2023-01-05T01:52:51;2.40;;;1.00;;
30519;SDS011;17300;50.374;8.006;2023-01-05T01:55:22;3.73;;;1.33;;
30519;SDS011;17300;50.374;8.006;2023-01-05T01:57:49;3.67;;;1.27;;
30519;SDS011;17300;50.374;8.006;2023-01-05T02:00:17;3.70;;;1.60;;
30519;SDS011;17300;50.374;8.006;2023-01-05T02:02:45;3.13;;;1.30;;
30519;SDS011;17300;50.374;8.006;2023-01-05T02:05:14;4.63;;;1.10;;
30519;SDS011;17300;50.374;8.006;2023-01-05T02:07:43;3.33;;;1.30;;
30519;SDS011;17300;50.374;8.006;2023-01-05T02:10:13;3.33;;;1.40;;
30519;SDS011;17300;50.374;8.006;2023-01-05T02:12:47;2.80;;;1.03;;
30519;SDS011;17300;50.374;8.006;2023-01-05T02:15:25;3.83;;;1.47;;
30519;SDS011;17300;50.374;8.006;2023-01-05T02:18:06;3.63;;;1.00;;
30519;SDS011;17300;50.374;8.006;2023-01-05T02:20:47;3.53;;;1.50;;
30519;SDS011;17300;50.374;8.006;2023-01-05T02:23:40;3.73;;;1.10;;
30519;SDS011;17300;50.374;8.006;2023-01-05T02:29:45;2.90;;;1.30;;
30519;SDS011;17300;50.374;8.006;2023-01-05T02:32:38;3.10;;;1.37;;
30519;SDS011;17300;50.374;8.006;2023-01-05T02:35:12;3.77;;;1.23;;
30519;SDS011;17300;50.374;8.006;2023-01-05T02:37:46;3.87;;;1.20;;
30519;SDS011;17300;50.374;8.006;2023-01-05T02:40:19;3.53;;;1.17;;
30519;SDS011;17300;50.374;8.006;2023-01-05T02:42:50;4.27;;;1.60;;
30519;SDS011;17300;50.374;8.006;2023-01-05T02:45:20;4.37;;;1.23;;
30519;SDS011;17300;50.374;8.006;2023-01-05T02:47:49;3.77;;;1.30;;
30519;SDS011;17300;50.374;8.006;2023-01-05T02:50:17;3.90;;;1.60;;
30519;SDS011;17300;50.374;8.006;2023-01-05T02:52:52;3.17;;;1.40;;
30519;SDS011;17300;50.374;8.006;2023-01-05T02:55:25;1.87;;;0.80;;
30519;SDS011;17300;50.374;8.006;2023-01-05T02:57:59;5.13;;;1.80;;
30519;SDS011;17300;50.374;8.006;2023-01-05T03:00:29;3.83;;;1.20;;
30519;SDS011;17300;50.374;8.006;2023-01-05T03:03:01;3.63;;;1.60;;
30519;SDS011;17300;50.374;8.006;2023-01-05T03:05:34;4.30;;;1.27;;
30519;SDS011;17300;50.374;8.006;2023-01-05T03:08:04;3.37;;;1.20;;
30519;SDS011;17300;50.374;8.006;2023-01-05T03:10:49;4.13;;;1.83;;
30519;SDS011;17300;50.374;8.006;2023-01-05T03:13:40;3.30;;;1.13;;
30519;SDS011;17300;50.374;8.006;2023-01-05T03:16:10;3.33;;;1.27;;
30519;SDS011;17300;50.374;8.006;2023-01-05T03:18:41;2.83;;;1.10;;
30519;SDS011;17300;50.374;8.006;2023-01-05T03:21:27;3.83;;;1.17;;
30519;SDS011;17300;50.374;8.006;2023-01-05T03:23:55;2.87;;;1.20;;
30519;SDS011;17300;50.374;8.006;2023-01-05T03:26:40;3.20;;;1.43;;
30519;SDS011;17300;50.374;8.006;2023-01-05T03:29:25;4.23;;;1.60;;
30519;SDS011;17300;50.374;8.006;2023-01-05T03:32:12;3.77;;;1.47;;
30519;SDS011;17300;50.374;8.006;2023-01-05T03:35:07;4.23;;;1.47;;
30519;SDS011;17300;50.374;8.006;2023-01-05T03:37:59;4.47;;;1.20;;
30519;SDS011;17300;50.374;8.006;2023-01-05T03:40:32;4.40;;;1.50;;
30519;SDS011;17300;50.374;8.006;2023-01-05T03:43:00;3.27;;;1.10;;
30519;SDS011;17300;50.374;8.006;2023-01-05T03:45:31;3.97;;;1.40;;
30519;SDS011;17300;50.374;8.006;2023-01-05T03:48:00;5.10;;;1.57;;
30519;SDS011;17300;50.374;8.006;2023-01-05T03:50:28;2.90;;;1.10;;
30519;SDS011;17300;50.374;8.006;2023-01-05T03:52:55;4.30;;;1.10;;
30519;SDS011;17300;50.374;8.006;2023-01-05T03:55:22;5.27;;;1.50;;
30519;SDS011;17300;50.374;8.006;2023-01-05T03:57:49;2.70;;;1.13;;
30519;SDS011;17300;50.374;8.006;2023-01-05T04:00:16;3.83;;;1.30;;
30519;SDS011;17300;50.374;8.006;2023-01-05T04:02:43;5.37;;;1.67;;
30519;SDS011;17300;50.374;8.006;2023-01-05T04:05:09;3.43;;;1.33;;
30519;SDS011;17300;50.374;8.006;2023-01-05T04:07:39;4.53;;;1.37;;
30519;SDS011;17300;50.374;8.006;2023-01-05T04:10:06;3.47;;;1.43;;
30519;SDS011;17300;50.374;8.006;2023-01-05T04:12:33;4.60;;;1.57;;
30519;SDS011;17300;50.374;8.006;2023-01-05T04:15:00;3.73;;;1.50;;
30519;SDS011;17300;50.374;8.006;2023-01-05T04:17:27;4.77;;;1.60;;
30519;SDS011;17300;50.374;8.006;2023-01-05T04:19:54;3.30;;;1.13;;
30519;SDS011;17300;50.374;8.006;2023-01-05T04:22:20;3.83;;;1.40;;
30519;SDS011;17300;50.374;8.006;2023-01-05T04:24:48;2.77;;;1.47;;
30519;SDS011;17300;50.374;8.006;2023-01-05T04:27:15;3.90;;;1.40;;
30519;SDS011;17300;50.374;8.006;2023-01-05T04:29:42;3.73;;;1.63;;
30519;SDS011;17300;50.374;8.006;2023-01-05T04:32:08;5.07;;;1.60;;
30519;SDS011;17300;50.374;8.006;2023-01-05T04:34:35;3.53;;;1.47;;
30519;SDS011;17300;50.374;8.006;2023-01-05T04:37:02;4.17;;;1.33;;
30519;SDS011;17300;50.374;8.006;2023-01-05T04:39:28;4.43;;;1.20;;
30519;SDS011;17300;50.374;8.006;2023-01-05T04:41:56;5.13;;;1.40;;
30519;SDS011;17300;50.374;8.006;2023-01-05T04:44:23;4.77;;;1.37;;
30519;SDS011;17300;50.374;8.006;2023-01-05T04:46:50;4.23;;;1.23;;
30519;SDS011;17300;50.374;8.006;2023-01-05T04:49:16;4.37;;;1.33;;
30519;SDS011;17300;50.374;8.006;2023-01-05T04:51:43;2.60;;;1.20;;
30519;SDS011;17300;50.374;8.006;2023-01-05T04:54:10;5.00;;;1.93;;
30519;SDS011;17300;50.374;8.006;2023-01-05T04:56:36;2.97;;;1.40;;
30519;SDS011;17300;50.374;8.006;2023-01-05T04:59:04;3.77;;;1.50;;
30519;SDS011;17300;50.374;8.006;2023-01-05T05:01:31;3.37;;;1.47;;
30519;SDS011;17300;50.374;8.006;2023-01-05T05:03:58;2.40;;;1.33;;
30519;SDS011;17300;50.374;8.006;2023-01-05T05:06:24;3.20;;;1.37;;
30519;SDS011;17300;50.374;8.006;2023-01-05T05:08:51;5.07;;;1.37;;
30519;SDS011;17300;50.374;8.006;2023-01-05T05:11:18;3.63;;;1.37;;
30519;SDS011;17300;50.374;8.006;2023-01-05T05:13:44;3.87;;;1.37;;
30519;SDS011;17300;50.374;8.006;2023-01-05T05:16:13;3.60;;;1.47;;
30519;SDS011;17300;50.374;8.006;2023-01-05T05:18:39;4.80;;;1.30;;
30519;SDS011;17300;50.374;8.006;2023-01-05T05:21:06;3.00;;;1.17;;
30519;SDS011;17300;50.374;8.006;2023-01-05T05:23:33;3.50;;;1.63;;
30519;SDS011;17300;50.374;8.006;2023-01-05T05:25:59;4.27;;;1.47;;
30519;SDS011;17300;50.374;8.006;2023-01-05T05:28:26;3.30;;;1.43;;
30519;SDS011;17300;50.374;8.006;2023-01-05T05:30:53;3.10;;;1.40;;
30519;SDS011;17300;50.374;8.006;2023-01-05T05:33:21;3.50;;;1.50;;
30519;SDS011;17300;50.374;8.006;2023-01-05T05:35:49;1.90;;;1.00;;
30519;SDS011;17300;50.374;8.006;2023-01-05T05:38:16;2.93;;;1.33;;
30519;SDS011;17300;50.374;8.006;2023-01-05T05:40:43;3.80;;;1.40;;
30519;SDS011;17300;50.374;8.006;2023-01-05T05:43:10;3.43;;;1.40;;
30519;SDS011;17300;50.374;8.006;2023-01-05T05:45:36;3.07;;;1.03;;
30519;SDS011;17300;50.374;8.006;2023-01-05T05:48:03;2.93;;;1.30;;
30519;SDS011;17300;50.374;8.006;2023-01-05T05:50:31;3.73;;;1.10;;
30519;SDS011;17300;50.374;8.006;2023-01-05T05:52:58;3.97;;;1.30;;
30519;SDS011;17300;50.374;8.006;2023-01-05T05:55:25;3.10;;;1.20;;
30519;SDS011;17300;50.374;8.006;2023-01-05T05:57:51;4.63;;;1.40;;
30519;SDS011;17300;50.374;8.006;2023-01-05T06:00:18;3.30;;;1.17;;
30519;SDS011;17300;50.374;8.006;2023-01-05T06:02:45;4.33;;;1.37;;
30519;SDS011;17300;50.374;8.006;2023-01-05T06:05:12;3.17;;;0.97;;
30519;SDS011;17300;50.374;8.006;2023-01-05T06:07:40;4.17;;;1.53;;
30519;SDS011;17300;50.374;8.006;2023-01-05T06:10:07;2.43;;;1.20;;
30519;SDS011;17300;50.374;8.006;2023-01-05T06:12:34;2.33;;;1.10;;
30519;SDS011;17300;50.374;8.006;2023-01-05T06:15:00;3.20;;;1.37;;
30519;SDS011;17300;50.374;8.006;2023-01-05T06:17:27;4.63;;;1.40;;
30519;SDS011;17300;50.374;8.006;2023-01-05T06:19:54;3.47;;;1.83;;
30519;SDS011;17300;50.374;8.006;2023-01-05T06:22:21;4.27;;;1.50;;
30519;SDS011;17300;50.374;8.006;2023-01-05T06:24:49;4.43;;;1.83;;
30519;SDS011;17300;50.374;8.006;2023-01-05T06:27:15;3.03;;;1.33;;
30519;SDS011;17300;50.374;8.006;2023-01-05T06:29:42;4.33;;;1.80;;
30519;SDS011;17300;50.374;8.006;2023-01-05T06:32:09;4.90;;;1.73;;
30519;SDS011;17300;50.374;8.006;2023-01-05T06:34:35;4.03;;;1.40;;
30519;SDS011;17300;50.374;8.006;2023-01-05T06:37:02;3.47;;;1.50;;
30519;SDS011;17300;50.374;8.006;2023-01-05T06:39:30;5.23;;;1.70;;
30519;SDS011;17300;50.374;8.006;2023-01-05T06:41:58;3.33;;;1.67;;
30519;SDS011;17300;50.374;8.006;2023-01-05T06:44:25;3.63;;;1.27;;
30519;SDS011;17300;50.374;8.006;2023-01-05T06:46:51;3.07;;;1.30;;
30519;SDS011;17300;50.374;8.006;2023-01-05T06:49:18;2.87;;;1.23;;
30519;SDS011;17300;50.374;8.006;2023-01-05T06:51:44;4.47;;;1.90;;
30519;SDS011;17300;50.374;8.006;2023-01-05T06:54:11;2.93;;;1.10;;
30519;SDS011;17300;50.374;8.006;2023-01-05T06:56:38;4.60;;;1.47;;
30519;SDS011;17300;50.374;8.006;2023-01-05T06:59:06;3.60;;;1.10;;
30519;SDS011;17300;50.374;8.006;2023-01-05T07:01:33;3.77;;;1.60;;
30519;SDS011;17300;50.374;8.006;2023-01-05T07:03:59;3.73;;;1.43;;
30519;SDS011;17300;50.374;8.006;2023-01-05T07:06:26;3.93;;;1.60;;
30519;SDS011;17300;50.374;8.006;2023-01-05T07:08:53;3.97;;;1.50;;
30519;SDS011;17300;50.374;8.006;2023-01-05T07:11:19;3.47;;;1.30;;
30519;SDS011;17300;50.374;8.006;2023-01-05T07:13:46;4.53;;;1.60;;
30519;SDS011;17300;50.374;8.006;2023-01-05T07:16:16;4.40;;;1.70;;
30519;SDS011;17300;50.374;8.006;2023-01-05T07:18:43;5.33;;;1.77;;
30519;SDS011;17300;50.374;8.006;2023-01-05T07:21:10;5.33;;;2.43;;
30519;SDS011;17300;50.374;8.006;2023-01-05T07:23:36;4.23;;;1.87;;
30519;SDS011;17300;50.374;8.006;2023-01-05T07:26:03;4.47;;;2.33;;
30519;SDS011;17300;50.374;8.006;2023-01-05T07:28:31;3.77;;;1.60;;
30519;SDS011;17300;50.374;8.006;2023-01-05T07:30:57;4.67;;;1.60;;
30519;SDS011;17300;50.374;8.006;2023-01-05T07:33:25;6.40;;;2.40;;
30519;SDS011;17300;50.374;8.006;2023-01-05T07:35:52;3.90;;;1.50;;
30519;SDS011;17300;50.374;8.006;2023-01-05T07:38:19;4.57;;;1.87;;
30519;SDS011;17300;50.374;8.006;2023-01-05T07:40:45;5.23;;;1.63;;
30519;SDS011;17300;50.374;8.006;2023-01-05T07:43:12;3.27;;;1.50;;
30519;SDS011;17300;50.374;8.006;2023-01-05T07:45:40;2.77;;;1.50;;
30519;SDS011;17300;50.374;8.006;2023-01-05T07:48:07;4.00;;;1.60;;
30519;SDS011;17300;50.374;8.006;2023-01-05T07:50:35;3.70;;;1.60;;
30519;SDS011;17300;50.374;8.006;2023-01-05T07:53:01;3.80;;;1.47;;
30519;SDS011;17300;50.374;8.006;2023-01-05T07:55:28;2.27;;;1.50;;
30519;SDS011;17300;50.374;8.006;2023-01-05T07:57:55;3.43;;;1.60;;
30519;SDS011;17300;50.374;8.006;2023-01-05T08:00:21;3.47;;;1.30;;
30519;SDS011;17300;50.374;8.006;2023-01-05T08:02:48;2.60;;;1.27;;
30519;SDS011;17300;50.374;8.006;2023-01-05T08:05:15;4.30;;;1.60;;
30519;SDS011;17300;50.374;8.006;2023-01-05T08:07:43;4.80;;;1.90;;
30519;SDS011;17300;50.374;8.006;2023-01-05T08:10:10;3.37;;;1.27;;
30519;SDS011;17300;50.374;8.006;2023-01-05T08:12:54;4.80;;;1.43;;
30519;SDS011;17300;50.374;8.006;2023-01-05T08:15:44;3.40;;;1.50;;
30519;SDS011;17300;50.374;8.006;2023-01-05T08:18:11;3.43;;;1.53;;
30519;SDS011;17300;50.374;8.006;2023-01-05T08:20:37;4.10;;;1.60;;
30519;SDS011;17300;50.374;8.006;2023-01-05T08:23:05;4.67;;;1.90;;
30519;SDS011;17300;50.374;8.006;2023-01-05T08:25:32;3.77;;;1.47;;
30519;SDS011;17300;50.374;8.006;2023-01-05T08:27:59;4.50;;;1.70;;
30519;SDS011;17300;50.374;8.006;2023-01-05T08:30:26;2.67;;;1.20;;
30519;SDS011;17300;50.374;8.006;2023-01-05T08:32:52;3.93;;;1.67;;
30519;SDS011;17300;50.374;8.006;2023-01-05T08:35:19;5.07;;;1.77;;
30519;SDS011;17300;50.374;8.006;2023-01-05T08:37:46;3.97;;;1.70;;
30519;SDS011;17300;50.374;8.006;2023-01-05T08:40:14;4.43;;;1.63;;
30519;SDS011;17300;50.374;8.006;2023-01-05T08:42:40;3.97;;;1.47;;
30519;SDS011;17300;50.374;8.006;2023-01-05T08:45:07;4.30;;;1.53;;
30519;SDS011;17300;50.374;8.006;2023-01-05T08:47:35;3.80;;;1.90;;
30519;SDS011;17300;50.374;8.006;2023-01-05T08:50:01;4.77;;;2.07;;
30519;SDS011;17300;50.374;8.006;2023-01-05T08:52:28;5.17;;;2.00;;
30519;SDS011;17300;50.374;8.006;2023-01-05T08:54:55;4.83;;;2.10;;
30519;SDS011;17300;50.374;8.006;2023-01-05T08:57:23;4.50;;;2.10;;
30519;SDS011;17300;50.374;8.006;2023-01-05T08:59:49;3.70;;;2.00;;
30519;SDS011;17300;50.374;8.006;2023-01-05T09:02:16;6.10;;;3.70;;
30519;SDS011;17300;50.374;8.006;2023-01-05T09:04:43;6.67;;;4.23;;
30519;SDS011;17300;50.374;8.006;2023-01-05T09:07:10;4.87;;;3.00;;
30519;SDS011;17300;50.374;8.006;2023-01-05T09:09:37;5.10;;;2.60;;
30519;SDS011;17300;50.374;8.006;2023-01-05T09:12:04;4.27;;;2.00;;
30519;SDS011;17300;50.374;8.006;2023-01-05T09:14:32;4.83;;;2.10;;
30519;SDS011;17300;50.374;8.006;2023-01-05T09:16:59;3.70;;;1.97;;
30519;SDS011;17300;50.374;8.006;2023-01-05T09:19:26;4.67;;;2.20;;
30519;SDS011;17300;50.374;8.006;2023-01-05T09:21:53;4.43;;;1.67;;
30519;SDS011;17300;50.374;8.006;2023-01-05T09:24:20;4.87;;;2.00;;
30519;SDS011;17300;50.374;8.006;2023-01-05T09:26:47;4.13;;;1.50;;
30519;SDS011;17300;50.374;8.006;2023-01-05T09:29:14;5.07;;;1.33;;
30519;SDS011;17300;50.374;8.006;2023-01-05T09:31:42;5.90;;;2.10;;
30519;SDS011;17300;50.374;8.006;2023-01-05T09:34:09;3.90;;;2.07;;
30519;SDS011;17300;50.374;8.006;2023-01-05T09:36:36;4.23;;;1.97;;
30519;SDS011;17300;50.374;8.006;2023-01-05T09:39:03;3.93;;;1.67;;
30519;SDS011;17300;50.374;8.006;2023-01-05T09:41:31;3.90;;;1.93;;
30519;SDS011;17300;50.374;8.006;2023-01-05T09:44:01;4.00;;;1.57;;
30519;SDS011;17300;50.374;8.006;2023-01-05T09:46:32;2.63;;;1.23;;
30519;SDS011;17300;50.374;8.006;2023-01-05T09:49:03;4.30;;;1.67;;
30519;SDS011;17300;50.374;8.006;2023-01-05T09:51:32;3.00;;;1.60;;
30519;SDS011;17300;50.374;8.006;2023-01-05T09:54:00;3.10;;;1.33;;
30519;SDS011;17300;50.374;8.006;2023-01-05T09:56:28;4.37;;;1.90;;
30519;SDS011;17300;50.374;8.006;2023-01-05T09:58:59;5.03;;;1.97;;
30519;SDS011;17300;50.374;8.006;2023-01-05T10:01:30;4.07;;;1.80;;
30519;SDS011;17300;50.374;8.006;2023-01-05T10:03:59;3.93;;;2.00;;
30519;SDS011;17300;50.374;8.006;2023-01-05T10:06:31;3.80;;;1.83;;
30519;SDS011;17300;50.374;8.006;2023-01-05T10:09:02;3.37;;;1.63;;
30519;SDS011;17300;50.374;8.006;2023-01-05T10:11:33;3.80;;;2.03;;
30519;SDS011;17300;50.374;8.006;2023-01-05T10:14:23;4.80;;;1.90;;
30519;SDS011;17300;50.374;8.006;2023-01-05T10:16:55;5.27;;;1.63;;
30519;SDS011;17300;50.374;8.006;2023-01-05T10:19:22;4.23;;;1.67;;
30519;SDS011;17300;50.374;8.006;2023-01-05T10:21:53;5.40;;;1.70;;
30519;SDS011;17300;50.374;8.006;2023-01-05T10:24:31;5.57;;;2.10;;
30519;SDS011;17300;50.374;8.006;2023-01-05T10:27:06;4.57;;;2.13;;
30519;SDS011;17300;50.374;8.006;2023-01-05T10:29:39;5.53;;;1.80;;
30519;SDS011;17300;50.374;8.006;2023-01-05T10:32:11;5.27;;;1.57;;
30519;SDS011;17300;50.374;8.006;2023-01-05T10:34:51;4.27;;;1.77;;
30519;SDS011;17300;50.374;8.006;2023-01-05T10:37:28;3.70;;;1.70;;
30519;SDS011;17300;50.374;8.006;2023-01-05T10:40:11;6.93;;;2.17;;
30519;SDS011;17300;50.374;8.006;2023-01-05T10:42:48;4.13;;;1.70;;
30519;SDS011;17300;50.374;8.006;2023-01-05T10:45:28;4.77;;;1.70;;
30519;SDS011;17300;50.374;8.006;2023-01-05T10:47:56;5.03;;;1.77;;
30519;SDS011;17300;50.374;8.006;2023-01-05T10:50:26;4.83;;;1.80;;
30519;SDS011;17300;50.374;8.006;2023-01-05T10:53:00;4.97;;;1.70;;
30519;SDS011;17300;50.374;8.006;2023-01-05T10:55:36;5.00;;;1.70;;
30519;SDS011;17300;50.374;8.006;2023-01-05T10:58:19;5.07;;;1.97;;
30519;SDS011;17300;50.374;8.006;2023-01-05T11:00:50;4.60;;;2.10;;
30519;SDS011;17300;50.374;8.006;2023-01-05T11:03:20;5.37;;;2.47;;
30519;SDS011;17300;50.374;8.006;2023-01-05T11:05:53;5.43;;;1.73;;
30519;SDS011;17300;50.374;8.006;2023-01-05T11:08:24;5.50;;;2.27;;
30519;SDS011;17300;50.374;8.006;2023-01-05T11:10:54;6.27;;;2.93;;
30519;SDS011;17300;50.374;8.006;2023-01-05T11:13:26;5.83;;;3.10;;
30519;SDS011;17300;50.374;8.006;2023-01-05T11:15:55;6.17;;;3.33;;
30519;SDS011;17300;50.374;8.006;2023-01-05T11:18:29;7.37;;;3.00;;
30519;SDS011;17300;50.374;8.006;2023-01-05T11:21:03;15.70;;;11.93;;
30519;SDS011;17300;50.374;8.006;2023-01-05T11:23:34;11.93;;;8.20;;
30519;SDS011;17300;50.374;8.006;2023-01-05T11:26:18;9.60;;;6.40;;
30519;SDS011;17300;50.374;8.006;2023-01-05T11:28:55;11.70;;;6.87;;
30519;SDS011;17300;50.374;8.006;2023-01-05T11:31:24;9.57;;;5.60;;
30519;SDS011;17300;50.374;8.006;2023-01-05T11:33:54;6.90;;;4.00;;
30519;SDS011;17300;50.374;8.006;2023-01-05T11:36:23;5.47;;;3.17;;
30519;SDS011;17300;50.374;8.006;2023-01-05T11:38:52;5.60;;;2.60;;
30519;SDS011;17300;50.374;8.006;2023-01-05T11:41:20;8.17;;;2.57;;
30519;SDS011;17300;50.374;8.006;2023-01-05T11:43:48;6.17;;;2.30;;
30519;SDS011;17300;50.374;8.006;2023-01-05T11:46:16;4.17;;;2.20;;
30519;SDS011;17300;50.374;8.006;2023-01-05T11:48:47;5.37;;;2.23;;
30519;SDS011;17300;50.374;8.006;2023-01-05T11:51:31;5.53;;;2.07;;
30519;SDS011;17300;50.374;8.006;2023-01-05T11:54:00;7.80;;;2.03;;
30519;SDS011;17300;50.374;8.006;2023-01-05T11:56:27;5.80;;;1.70;;
30519;SDS011;17300;50.374;8.006;2023-01-05T11:58:54;8.23;;;2.33;;
30519;SDS011;17300;50.374;8.006;2023-01-05T12:04:28;3.93;;;1.70;;
30519;SDS011;17300;50.374;8.006;2023-01-05T12:10:23;3.93;;;2.10;;
30519;SDS011;17300;50.374;8.006;2023-01-05T12:13:00;5.27;;;2.17;;
30519;SDS011;17300;50.374;8.006;2023-01-05T12:15:39;5.07;;;2.13;;
30519;SDS011;17300;50.374;8.006;2023-01-05T12:18:23;5.73;;;2.23;;
30519;SDS011;17300;50.374;8.006;2023-01-05T12:20:59;5.07;;;1.80;;
30519;SDS011;17300;50.374;8.006;2023-01-05T12:23:42;4.77;;;1.90;;
30519;SDS011;17300;50.374;8.006;2023-01-05T12:26:27;4.40;;;1.60;;
30519;SDS011;17300;50.374;8.006;2023-01-05T12:29:02;4.93;;;2.03;;
30519;SDS011;17300;50.374;8.006;2023-01-05T12:31:41;4.23;;;2.00;;
30519;SDS011;17300;50.374;8.006;2023-01-05T12:34:38;5.70;;;2.13;;
30519;SDS011;17300;50.374;8.006;2023-01-05T12:37:23;5.10;;;2.00;;
30519;SDS011;17300;50.374;8.006;2023-01-05T12:40:02;4.70;;;1.97;;
30519;SDS011;17300;50.374;8.006;2023-01-05T12:42:47;5.70;;;2.07;;
30519;SDS011;17300;50.374;8.006;2023-01-05T12:48:28;4.03;;;2.00;;
30519;SDS011;17300;50.374;8.006;2023-01-05T12:51:02;4.37;;;1.50;;
30519;SDS011;17300;50.374;8.006;2023-01-05T12:53:37;3.50;;;1.80;;
30519;SDS011;17300;50.374;8.006;2023-01-05T12:56:18;4.07;;;1.67;;
30519;SDS011;17300;50.374;8.006;2023-01-05T12:58:53;5.33;;;1.57;;
30519;SDS011;17300;50.374;8.006;2023-01-05T13:01:29;3.80;;;1.50;;
30519;SDS011;17300;50.374;8.006;2023-01-05T13:04:00;2.63;;;1.30;;
30519;SDS011;17300;50.374;8.006;2023-01-05T13:06:30;3.93;;;2.10;;
30519;SDS011;17300;50.374;8.006;2023-01-05T13:09:02;4.23;;;1.70;;
30519;SDS011;17300;50.374;8.006;2023-01-05T13:11:37;4.90;;;1.93;;
30519;SDS011;17300;50.374;8.006;2023-01-05T13:14:10;3.60;;;1.60;;
30519;SDS011;17300;50.374;8.006;2023-01-05T13:16:42;4.27;;;1.40;;
30519;SDS011;17300;50.374;8.006;2023-01-05T13:19:13;4.87;;;1.83;;
30519;SDS011;17300;50.374;8.006;2023-01-05T13:21:45;3.23;;;1.50;;
30519;SDS011;17300;50.374;8.006;2023-01-05T13:24:13;2.93;;;1.13;;
30519;SDS011;17300;50.374;8.006;2023-01-05T13:26:47;4.57;;;1.50;;
30519;SDS011;17300;50.374;8.006;2023-01-05T13:29:18;2.93;;;1.30;;
30519;SDS011;17300;50.374;8.006;2023-01-05T13:32:02;3.40;;;1.50;;
30519;SDS011;17300;50.374;8.006;2023-01-05T13:34:42;3.83;;;1.50;;
30519;SDS011;17300;50.374;8.006;2023-01-05T13:37:25;3.20;;;1.23;;
30519;SDS011;17300;50.374;8.006;2023-01-05T13:40:10;3.13;;;1.33;;
30519;SDS011;17300;50.374;8.006;2023-01-05T13:42:56;3.23;;;1.77;;
30519;SDS011;17300;50.374;8.006;2023-01-05T13:48:32;3.83;;;1.50;;
30519;SDS011;17300;50.374;8.006;2023-01-05T13:51:24;2.70;;;1.33;;
30519;SDS011;17300;50.374;8.006;2023-01-05T13:54:11;2.93;;;1.50;;
30519;SDS011;17300;50.374;8.006;2023-01-05T13:56:42;4.23;;;1.43;;
30519;SDS011;17300;50.374;8.006;2023-01-05T13:59:15;4.90;;;1.57;;
30519;SDS011;17300;50.374;8.006;2023-01-05T14:01:52;3.80;;;1.60;;
30519;SDS011;17300;50.374;8.006;2023-01-05T14:04:21;4.03;;;1.90;;
30519;SDS011;17300;50.374;8.006;2023-01-05T14:06:50;2.80;;;1.27;;
30519;SDS011;17300;50.374;8.006;2023-01-05T14:09:22;2.70;;;1.33;;
30519;SDS011;17300;50.374;8.006;2023-01-05T14:18:03;3.80;;;1.80;;
30519;SDS011;17300;50.374;8.006;2023-01-05T14:20:31;3.80;;;1.90;;
30519;SDS011;17300;50.374;8.006;2023-01-05T14:26:14;3.73;;;1.50;;
30519;SDS011;17300;50.374;8.006;2023-01-05T14:28:47;2.83;;;1.47;;
30519;SDS011;17300;50.374;8.006;2023-01-05T14:31:31;2.50;;;1.43;;
30519;SDS011;17300;50.374;8.006;2023-01-05T14:34:03;2.93;;;1.37;;
30519;SDS011;17300;50.374;8.006;2023-01-05T14:36:33;4.23;;;1.80;;
30519;SDS011;17300;50.374;8.006;2023-01-05T14:39:03;3.80;;;1.47;;
30519;SDS011;17300;50.374;8.006;2023-01-05T14:41:32;5.13;;;1.90;;
30519;SDS011;17300;50.374;8.006;2023-01-05T14:44:00;3.47;;;2.00;;
30519;SDS011;17300;50.374;8.006;2023-01-05T14:46:41;5.47;;;1.73;;
30519;SDS011;17300;50.374;8.006;2023-01-05T14:49:18;5.10;;;1.93;;
30519;SDS011;17300;50.374;8.006;2023-01-05T14:51:51;4.77;;;2.20;;
30519;SDS011;17300;50.374;8.006;2023-01-05T14:54:33;5.90;;;2.03;;
30519;SDS011;17300;50.374;8.006;2023-01-05T14:57:35;4.43;;;1.73;;
30519;SDS011;17300;50.374;8.006;2023-01-05T15:00:05;5.20;;;1.90;;
30519;SDS011;17300;50.374;8.006;2023-01-05T15:02:41;6.40;;;2.40;;
30519;SDS011;17300;50.374;8.006;2023-01-05T15:05:16;5.33;;;2.10;;
30519;SDS011;17300;50.374;8.006;2023-01-05T15:07:45;6.80;;;2.20;;
30519;SDS011;17300;50.374;8.006;2023-01-05T15:10:37;3.93;;;2.03;;
30519;SDS011;17300;50.374;8.006;2023-01-05T15:13:23;5.10;;;2.30;;
30519;SDS011;17300;50.374;8.006;2023-01-05T15:16:34;4.00;;;2.03;;
30519;SDS011;17300;50.374;8.006;2023-01-05T15:19:20;7.70;;;2.83;;
30519;SDS011;17300;50.374;8.006;2023-01-05T15:22:10;5.93;;;2.67;;
30519;SDS011;17300;50.374;8.006;2023-01-05T15:24:57;5.57;;;2.53;;
30519;SDS011;17300;50.374;8.006;2023-01-05T15:27:56;6.27;;;3.00;;
30519;SDS011;17300;50.374;8.006;2023-01-05T15:30:46;6.63;;;2.70;;
30519;SDS011;17300;50.374;8.006;2023-01-05T15:33:34;5.43;;;2.40;;
30519;SDS011;17300;50.374;8.006;2023-01-05T15:36:09;6.73;;;2.20;;
30519;SDS011;17300;50.374;8.006;2023-01-05T15:38:45;5.23;;;2.03;;